createdAt,value
2022-10-14T00:01:27.213Z,10.26
2022-10-14T00:04:06.127Z,10.22
2022-10-14T00:06:34.892Z,10.20
2022-10-14T00:09:07.494Z,10.19
2022-10-14T00:11:37.395Z,10.17
2022-10-14T00:14:13.724Z,10.15
2022-10-14T00:16:44.585Z,10.14
2022-10-14T00:19:13.886Z,10.14
2022-10-14T00:21:44.720Z,10.16
2022-10-14T00:24:16.119Z,10.13
2022-10-14T00:26:44.238Z,10.11
2022-10-14T00:29:18.750Z,10.10
2022-10-14T00:31:47.454Z,10.08
2022-10-14T00:34:16.848Z,10.08
2022-10-14T00:36:45.517Z,10.07
2022-10-14T00:39:17.393Z,10.05
2022-10-14T00:41:45.687Z,10.05
2022-10-14T00:44:13.597Z,10.05
2022-10-14T00:46:47.201Z,10.03
2022-10-14T00:49:18.933Z,10.02
2022-10-14T00:51:51.881Z,9.99
2022-10-14T00:54:24.558Z,10.00
2022-10-14T00:56:53.280Z,10.01
2022-10-14T00:59:21.725Z,9.99
2022-10-14T01:01:49.650Z,9.97
2022-10-14T01:04:17.865Z,9.97
2022-10-14T01:07:08.957Z,9.97
2022-10-14T01:09:51.079Z,9.96
2022-10-14T01:12:29.005Z,9.98
2022-10-14T01:15:05.085Z,9.99
2022-10-14T01:17:46.275Z,9.99
2022-10-14T01:20:38.147Z,10.00
2022-10-14T01:23:21.250Z,10.00
2022-10-14T01:26:10.944Z,9.99
2022-10-14T01:29:14.958Z,9.99
2022-10-14T01:31:48.859Z,9.98
2022-10-14T01:34:27.383Z,9.95
2022-10-14T01:37:01.157Z,9.93
2022-10-14T01:39:41.649Z,9.95
2022-10-14T01:42:15.742Z,9.95
2022-10-14T01:44:50.283Z,9.90
2022-10-14T01:47:21.177Z,9.90
2022-10-14T01:49:58.933Z,9.90
2022-10-14T01:52:33.855Z,9.90
2022-10-14T01:55:06.609Z,9.87
2022-10-14T01:57:38.603Z,9.85
2022-10-14T02:00:07.932Z,9.84
2022-10-14T02:02:42.312Z,9.83
2022-10-14T02:05:19.551Z,9.81
2022-10-14T02:07:58.609Z,9.81
2022-10-14T02:11:15.512Z,9.78
2022-10-14T02:13:55.597Z,9.75
2022-10-14T02:16:40.923Z,9.73
2022-10-14T02:19:23.070Z,9.72
2022-10-14T02:22:08.549Z,9.73
2022-10-14T02:24:42.491Z,9.72
2022-10-14T02:27:18.514Z,9.72
2022-10-14T02:29:48.538Z,9.73
2022-10-14T02:32:20.189Z,9.72
2022-10-14T02:34:54.980Z,9.71
2022-10-14T02:37:25.746Z,9.68
2022-10-14T02:40:18.101Z,9.66
2022-10-14T02:42:46.199Z,9.64
2022-10-14T02:45:15.870Z,9.64
2022-10-14T02:47:46.383Z,9.62
2022-10-14T02:50:14.949Z,9.61
2022-10-14T02:52:42.749Z,9.61
2022-10-14T02:55:11.118Z,9.60
2022-10-14T02:57:39.072Z,9.59
2022-10-14T03:00:07.755Z,9.59
2022-10-14T03:02:35.681Z,9.57
2022-10-14T03:05:04.992Z,9.55
2022-10-14T03:07:32.977Z,9.54
2022-10-14T03:10:03.546Z,9.52
2022-10-14T03:12:32.643Z,9.52
2022-10-14T03:15:01.124Z,9.52
2022-10-14T03:17:30.728Z,9.50
2022-10-14T03:20:04.303Z,9.48
2022-10-14T03:22:33.964Z,9.46
2022-10-14T03:25:01.886Z,9.47
2022-10-14T03:27:43.925Z,9.51
2022-10-14T03:30:15.494Z,9.49
2022-10-14T03:32:53.916Z,9.46
2022-10-14T03:35:30.538Z,9.45
2022-10-14T03:38:02.199Z,9.43
2022-10-14T03:40:31.409Z,9.38
2022-10-14T03:43:01.508Z,9.32
2022-10-14T03:45:34.903Z,9.27
2022-10-14T03:48:03.693Z,9.22
2022-10-14T03:50:31.780Z,9.18
2022-10-14T03:53:00.447Z,9.11
2022-10-14T03:55:33.922Z,9.06
2022-10-14T03:58:02.114Z,9.00
2022-10-14T04:00:30.175Z,8.96
2022-10-14T04:03:26.318Z,8.92
2022-10-14T04:05:55.675Z,8.92
2022-10-14T04:08:24.510Z,8.91
2022-10-14T04:11:02.238Z,8.88
2022-10-14T04:13:33.244Z,8.86
2022-10-14T04:16:09.904Z,8.87
2022-10-14T04:18:45.056Z,8.87
2022-10-14T04:21:13.403Z,8.86
2022-10-14T04:23:42.812Z,8.87
2022-10-14T04:26:15.720Z,8.88
2022-10-14T04:28:44.276Z,8.88
2022-10-14T04:31:20.462Z,8.87
2022-10-14T04:33:55.803Z,8.85
2022-10-14T04:36:28.877Z,8.84
2022-10-14T04:38:57.582Z,8.85
2022-10-14T04:41:25.419Z,8.84
2022-10-14T04:43:53.617Z,8.81
2022-10-14T04:46:31.487Z,8.82
2022-10-14T04:48:59.491Z,8.83
2022-10-14T04:51:30.532Z,8.81
2022-10-14T04:54:18.627Z,8.80
2022-10-14T04:56:51.756Z,8.80
2022-10-14T04:59:20.682Z,8.78
2022-10-14T05:02:10.646Z,8.77
2022-10-14T05:04:48.018Z,8.78
2022-10-14T05:07:16.708Z,8.79
2022-10-14T05:09:48.641Z,8.78
2022-10-14T05:12:35.477Z,8.79
2022-10-14T05:15:05.536Z,8.80
2022-10-14T05:17:39.717Z,8.85
2022-10-14T05:20:09.315Z,8.88
2022-10-14T05:22:38.532Z,8.88
2022-10-14T05:25:06.963Z,8.89
2022-10-14T05:27:40.894Z,8.89
2022-10-14T05:30:10.094Z,8.89
2022-10-14T05:32:41.302Z,8.89
2022-10-14T05:35:09.623Z,8.93
2022-10-14T05:37:39.533Z,8.93
2022-10-14T05:40:08.829Z,8.95
2022-10-14T05:42:37.729Z,8.99
2022-10-14T05:45:07.008Z,9.03
2022-10-14T05:47:37.047Z,9.06
2022-10-14T05:50:13.375Z,9.09
2022-10-14T05:52:43.113Z,9.14
2022-10-14T05:55:16.864Z,9.18
2022-10-14T05:57:46.159Z,9.23
2022-10-14T06:00:24.721Z,9.27
2022-10-14T06:02:56.964Z,9.33
2022-10-14T06:05:25.513Z,9.39
2022-10-14T06:07:53.761Z,9.46
2022-10-14T06:10:21.694Z,9.53
2022-10-14T06:12:49.698Z,9.59
2022-10-14T06:15:17.452Z,9.65
2022-10-14T06:17:45.385Z,9.70
2022-10-14T06:20:13.223Z,9.77
2022-10-14T06:22:41.464Z,9.84
2022-10-14T06:25:09.849Z,9.89
2022-10-14T06:27:37.617Z,9.95
2022-10-14T06:30:06.389Z,10.03
2022-10-14T06:32:34.152Z,10.11
2022-10-14T06:35:02.367Z,10.20
2022-10-14T06:37:30.086Z,10.29
2022-10-14T06:39:58.078Z,10.39
2022-10-14T06:42:26.610Z,10.47
2022-10-14T06:44:54.684Z,10.55
2022-10-14T06:47:22.480Z,10.62
2022-10-14T06:49:50.349Z,10.70
2022-10-14T06:52:18.320Z,10.77
2022-10-14T06:54:48.449Z,10.83
2022-10-14T06:57:17.044Z,10.91
2022-10-14T06:59:45.180Z,10.97
2022-10-14T07:02:13.063Z,11.03
2022-10-14T07:04:41.234Z,11.12
2022-10-14T07:07:09.380Z,11.19
2022-10-14T07:09:37.393Z,11.24
2022-10-14T07:12:05.215Z,11.29
2022-10-14T07:14:33.108Z,11.33
2022-10-14T07:17:01.146Z,11.39
2022-10-14T07:19:28.923Z,11.45
2022-10-14T07:21:56.810Z,11.51
2022-10-14T07:24:24.898Z,11.58
2022-10-14T07:26:52.906Z,11.66
2022-10-14T07:29:20.730Z,11.73
2022-10-14T07:31:48.581Z,11.80
2022-10-14T07:34:16.756Z,11.86
2022-10-14T07:36:44.724Z,11.94
2022-10-14T07:39:13.253Z,11.99
2022-10-14T07:41:41.119Z,12.05
2022-10-14T07:44:12.982Z,12.12
2022-10-14T07:46:43.447Z,12.17
2022-10-14T07:49:14.383Z,12.21
2022-10-14T07:51:43.122Z,12.27
2022-10-14T07:54:17.854Z,12.35
2022-10-14T07:56:46.886Z,12.44
2022-10-14T07:59:15.693Z,12.52
2022-10-14T08:01:45.780Z,12.61
2022-10-14T08:04:13.994Z,12.70
2022-10-14T08:06:42.233Z,12.79
2022-10-14T08:09:11.829Z,12.86
2022-10-14T08:11:40.056Z,12.93
2022-10-14T08:14:07.907Z,12.98
2022-10-14T08:16:36.473Z,13.02
2022-10-14T08:19:13.422Z,13.09
2022-10-14T08:21:43.549Z,13.13
2022-10-14T08:24:11.864Z,13.18
2022-10-14T08:26:49.007Z,13.23
2022-10-14T08:29:17.237Z,13.25
2022-10-14T08:31:45.126Z,13.28
2022-10-14T08:34:12.953Z,13.31
2022-10-14T08:36:41.227Z,13.35
2022-10-14T08:42:02.358Z,13.46
2022-10-14T08:44:55.507Z,13.49
2022-10-14T08:47:30.504Z,13.55
2022-10-14T08:50:04.768Z,13.60
2022-10-14T08:52:40.853Z,13.64
2022-10-14T08:55:23.963Z,13.70
2022-10-14T08:58:01.666Z,13.80
2022-10-14T09:00:32.262Z,13.89
2022-10-14T09:03:10.410Z,13.97
2022-10-14T09:05:39.675Z,14.06
2022-10-14T09:08:16.222Z,14.12
2022-10-14T09:10:44.831Z,14.19
2022-10-14T09:13:27.543Z,14.26
2022-10-14T09:16:02.844Z,14.33
2022-10-14T09:18:45.190Z,14.43
2022-10-14T09:21:51.585Z,14.52
2022-10-14T09:24:35.778Z,14.65
2022-10-14T09:27:11.666Z,14.73
2022-10-14T09:29:53.785Z,14.84
2022-10-14T09:32:30.838Z,14.91
2022-10-14T09:34:59.865Z,15.01
2022-10-14T09:37:28.915Z,15.08
2022-10-14T09:40:02.326Z,15.12
2022-10-14T09:42:49.157Z,15.17
2022-10-14T09:45:22.795Z,15.18
2022-10-14T09:47:59.484Z,15.21
2022-10-14T09:50:36.117Z,15.26
2022-10-14T09:53:10.813Z,15.28
2022-10-14T09:55:53.384Z,15.29
2022-10-14T09:58:33.126Z,15.32
2022-10-14T10:01:02.466Z,15.35
2022-10-14T10:03:35.652Z,15.40
2022-10-14T10:06:08.456Z,15.47
2022-10-14T10:08:53.970Z,15.51
2022-10-14T10:11:29.528Z,15.55
2022-10-14T10:13:58.067Z,15.58
2022-10-14T10:16:31.344Z,15.63
2022-10-14T10:19:35.840Z,15.66
2022-10-14T10:22:26.688Z,15.70
2022-10-14T10:25:01.190Z,15.77
2022-10-14T10:27:35.573Z,15.81
2022-10-14T10:30:12.698Z,15.82
2022-10-14T10:32:47.112Z,15.86
2022-10-14T10:35:29.796Z,15.90
2022-10-14T10:38:21.925Z,15.96
2022-10-14T10:41:22.652Z,15.99
2022-10-14T10:44:12.280Z,16.05
2022-10-14T10:46:46.084Z,16.09
2022-10-14T10:49:32.790Z,16.11
2022-10-14T10:52:08.851Z,16.14
2022-10-14T10:55:10.514Z,16.13
2022-10-14T10:57:46.697Z,16.10
2022-10-14T11:00:21.216Z,16.08
2022-10-14T11:03:34.115Z,16.08
2022-10-14T11:06:13.041Z,16.13
2022-10-14T11:09:12.657Z,16.15
2022-10-14T11:12:13.900Z,16.18
2022-10-14T11:15:03.988Z,16.19
2022-10-14T11:18:09.132Z,16.20
2022-10-14T11:20:40.270Z,16.24
2022-10-14T11:23:19.400Z,16.29
2022-10-14T11:26:02.838Z,16.32
2022-10-14T11:28:42.932Z,16.36
2022-10-14T11:31:33.771Z,16.40
2022-10-14T11:34:19.981Z,16.47
2022-10-14T11:37:03.124Z,16.54
2022-10-14T11:39:42.695Z,16.59
2022-10-14T11:42:26.381Z,16.64
2022-10-14T11:45:26.524Z,16.69
2022-10-14T11:48:10.328Z,16.75
2022-10-14T11:50:45.129Z,16.80
2022-10-14T11:56:34.765Z,16.86
2022-10-14T11:59:52.922Z,16.91
2022-10-14T12:02:50.663Z,16.95
2022-10-14T12:05:25.769Z,16.99
2022-10-14T12:08:05.763Z,17.01
2022-10-14T12:10:48.068Z,17.02
2022-10-14T12:13:20.659Z,17.02
2022-10-14T12:15:53.221Z,17.00
2022-10-14T12:18:21.916Z,17.00
2022-10-14T12:21:13.923Z,16.98
2022-10-14T12:23:55.674Z,17.01
2022-10-14T12:26:23.703Z,17.04
2022-10-14T12:28:54.089Z,17.05
2022-10-14T12:31:47.991Z,17.06
2022-10-14T12:34:25.362Z,17.05
2022-10-14T12:36:53.193Z,17.06
2022-10-14T12:39:31.946Z,17.07
2022-10-14T12:42:26.365Z,17.13
2022-10-14T12:44:58.637Z,17.15
2022-10-14T12:47:35.137Z,17.12
2022-10-14T12:50:22.940Z,17.13
2022-10-14T12:53:02.073Z,17.18
2022-10-14T12:55:49.067Z,17.21
2022-10-14T12:58:24.782Z,17.21
2022-10-14T13:00:56.035Z,17.21
2022-10-14T13:03:31.068Z,17.23
2022-10-14T13:06:35.617Z,17.28
2022-10-14T13:09:12.437Z,17.30
2022-10-14T13:11:42.374Z,17.28
2022-10-14T13:14:25.450Z,17.29
2022-10-14T13:16:53.149Z,17.33
2022-10-14T13:19:33.370Z,17.36
2022-10-14T13:22:22.894Z,17.36
2022-10-14T13:24:51.934Z,17.36
2022-10-14T13:27:33.315Z,17.39
2022-10-14T13:30:06.152Z,17.39
2022-10-14T13:32:39.909Z,17.40
2022-10-14T13:35:32.186Z,17.39
2022-10-14T13:38:06.690Z,17.40
2022-10-14T13:40:39.003Z,17.40
2022-10-14T13:43:13.044Z,17.37
2022-10-14T13:45:45.388Z,17.35
2022-10-14T13:48:17.199Z,17.35
2022-10-14T13:50:50.572Z,17.37
2022-10-14T13:53:21.890Z,17.40
2022-10-14T13:55:54.597Z,17.44
2022-10-14T13:58:24.492Z,17.45
2022-10-14T14:01:02.359Z,17.42
2022-10-14T14:03:36.818Z,17.36
2022-10-14T14:06:15.235Z,17.30
2022-10-14T14:09:19.107Z,17.25
2022-10-14T14:11:49.398Z,17.21
2022-10-14T14:14:23.533Z,17.17
2022-10-14T14:16:59.761Z,17.13
2022-10-14T14:19:34.229Z,17.08
2022-10-14T14:22:29.482Z,17.06
2022-10-14T14:25:46.786Z,17.00
2022-10-14T14:28:17.282Z,16.96
2022-10-14T14:30:55.110Z,16.91
2022-10-14T14:33:43.096Z,16.87
2022-10-14T14:36:27.792Z,16.82
2022-10-14T14:39:06.247Z,16.80
2022-10-14T14:41:34.628Z,16.85
2022-10-14T14:44:25.567Z,16.88
2022-10-14T14:46:58.388Z,16.90
2022-10-14T14:49:30.539Z,16.93
2022-10-14T14:52:01.108Z,16.93
2022-10-14T14:54:29.805Z,16.92
2022-10-14T14:57:01.350Z,16.92
2022-10-14T14:59:42.315Z,16.90
2022-10-14T15:02:22.513Z,16.89
2022-10-14T15:05:11.646Z,16.92
2022-10-14T15:07:43.807Z,16.94
2022-10-14T15:10:24.172Z,16.93
2022-10-14T15:12:56.441Z,16.88
2022-10-14T15:15:34.434Z,16.81
2022-10-14T15:18:26.221Z,16.74
2022-10-14T15:21:12.383Z,16.68
2022-10-14T15:23:42.377Z,16.62
2022-10-14T15:26:24.382Z,16.55
2022-10-14T15:29:06.719Z,16.45
2022-10-14T15:31:36.412Z,16.36
2022-10-14T15:34:05.279Z,16.28
2022-10-14T15:36:34.938Z,16.23
2022-10-14T15:39:03.058Z,16.18
2022-10-14T15:41:31.026Z,16.10
2022-10-14T15:43:58.778Z,16.01
2022-10-14T15:47:01.985Z,15.93
2022-10-14T15:49:38.157Z,15.83
2022-10-14T15:52:05.905Z,15.75
2022-10-14T15:54:33.981Z,15.67
2022-10-14T15:57:02.152Z,15.60
2022-10-14T15:59:30.031Z,15.52
2022-10-14T16:01:59.074Z,15.44
2022-10-14T16:04:28.931Z,15.35
2022-10-14T16:06:57.794Z,15.26
2022-10-14T16:09:29.131Z,15.19
2022-10-14T16:11:59.711Z,15.11
2022-10-14T16:14:27.969Z,15.03
2022-10-14T16:16:55.844Z,14.95
2022-10-14T16:19:23.699Z,14.89
2022-10-14T16:21:51.449Z,14.84
2022-10-14T16:24:25.442Z,14.78
2022-10-14T16:26:54.262Z,14.72
2022-10-14T16:29:22.071Z,14.66
2022-10-14T16:31:51.118Z,14.60
2022-10-14T16:34:22.723Z,14.55
2022-10-14T16:36:51.759Z,14.50
2022-10-14T16:39:20.078Z,14.45
2022-10-14T16:41:49.870Z,14.39
2022-10-14T16:44:27.583Z,14.34
2022-10-14T16:47:16.108Z,14.27
2022-10-14T16:49:45.954Z,14.21
2022-10-14T16:52:14.757Z,14.15
2022-10-14T16:54:42.912Z,14.09
2022-10-14T16:57:11.266Z,14.04
2022-10-14T16:59:39.631Z,14.00
2022-10-14T17:02:11.334Z,13.94
2022-10-14T17:04:46.676Z,13.90
2022-10-14T17:07:17.491Z,13.85
2022-10-14T17:09:45.178Z,13.81
2022-10-14T17:12:14.272Z,13.75
2022-10-14T17:14:43.119Z,13.72
2022-10-14T17:17:12.614Z,13.69
2022-10-14T17:19:41.574Z,13.65
2022-10-14T17:22:09.375Z,13.63
2022-10-14T17:24:42.664Z,13.60
2022-10-14T17:27:11.201Z,13.58
2022-10-14T17:29:39.522Z,13.54
2022-10-14T17:32:07.455Z,13.50
2022-10-14T17:34:35.251Z,13.47
2022-10-14T17:37:05.456Z,13.43
2022-10-14T17:39:33.528Z,13.39
2022-10-14T17:42:01.269Z,13.34
2022-10-14T17:44:29.113Z,13.30
2022-10-14T17:46:57.248Z,13.25
2022-10-14T17:49:25.070Z,13.20
2022-10-14T17:51:52.907Z,13.16
2022-10-14T17:54:20.935Z,13.12
2022-10-14T17:56:48.779Z,13.06
2022-10-14T17:59:16.589Z,12.99
2022-10-14T18:02:01.624Z,12.91
2022-10-14T18:04:32.741Z,12.84
2022-10-14T18:07:01.500Z,12.78
2022-10-14T18:09:29.482Z,12.73
2022-10-14T18:12:13.075Z,12.67
2022-10-14T18:14:41.644Z,12.62
2022-10-14T18:17:12.402Z,12.58
2022-10-14T18:19:41.690Z,12.54
2022-10-14T18:22:11.333Z,12.50
2022-10-14T18:24:39.570Z,12.46
2022-10-14T18:27:07.445Z,12.42
2022-10-14T18:29:35.317Z,12.40
2022-10-14T18:32:04.318Z,12.38
2022-10-14T18:34:32.323Z,12.36
2022-10-14T18:37:00.096Z,12.34
2022-10-14T18:39:27.860Z,12.31
2022-10-14T18:41:55.687Z,12.26
2022-10-14T18:44:23.458Z,12.22
2022-10-14T18:46:51.397Z,12.16
2022-10-14T18:49:19.301Z,12.09
2022-10-14T18:51:47.134Z,12.04
2022-10-14T18:54:17.746Z,11.98
2022-10-14T18:56:45.814Z,11.94
2022-10-14T18:59:19.344Z,11.90
2022-10-14T19:01:52.019Z,11.87
2022-10-14T19:04:22.891Z,11.83
2022-10-14T19:06:51.019Z,11.79
2022-10-14T19:09:21.763Z,11.77
2022-10-14T19:11:50.501Z,11.76
2022-10-14T19:14:18.633Z,11.74
2022-10-14T19:16:47.808Z,11.74
2022-10-14T19:19:18.711Z,11.72
2022-10-14T19:21:54.562Z,11.66
2022-10-14T19:24:22.573Z,11.61
2022-10-14T19:26:50.500Z,11.56
2022-10-14T19:29:18.309Z,11.53
2022-10-14T19:31:46.503Z,11.47
2022-10-14T19:34:16.269Z,11.41
2022-10-14T19:36:44.637Z,11.35
2022-10-14T19:39:15.215Z,11.31
2022-10-14T19:41:44.866Z,11.28
2022-10-14T19:44:14.526Z,11.24
2022-10-14T19:46:44.042Z,11.18
2022-10-14T19:49:13.793Z,11.15
2022-10-14T19:51:42.868Z,11.13
2022-10-14T19:54:12.502Z,11.08
2022-10-14T19:56:41.091Z,11.04
2022-10-14T19:59:09.666Z,11.02
2022-10-14T20:01:37.527Z,10.97
2022-10-14T20:04:05.451Z,10.92
2022-10-14T20:06:35.794Z,10.89
2022-10-14T20:09:05.100Z,10.85
2022-10-14T20:11:34.152Z,10.84
2022-10-14T20:14:02.024Z,10.84
2022-10-14T20:16:30.116Z,10.81
2022-10-14T20:18:58.668Z,10.79
2022-10-14T20:21:26.880Z,10.76
2022-10-14T20:23:54.821Z,10.75
2022-10-14T20:26:22.630Z,10.76
2022-10-14T20:28:51.284Z,10.76
2022-10-14T20:31:22.042Z,10.79
2022-10-14T20:33:49.945Z,10.81
2022-10-14T20:36:20.531Z,10.83
2022-10-14T20:38:50.434Z,10.83
2022-10-14T20:41:24.973Z,10.85
2022-10-14T20:43:54.245Z,10.87
2022-10-14T20:46:24.707Z,10.89
2022-10-14T20:48:57.426Z,10.92
2022-10-14T20:51:27.165Z,10.93
2022-10-14T20:54:01.644Z,10.95
2022-10-14T20:56:33.752Z,10.95
2022-10-14T20:59:05.278Z,10.93
2022-10-14T21:01:36.801Z,10.93
2022-10-14T21:04:07.397Z,10.93
2022-10-14T21:06:36.255Z,10.93
2022-10-14T21:09:04.977Z,10.95
2022-10-14T21:11:33.016Z,10.98
2022-10-14T21:14:01.697Z,10.98
2022-10-14T21:16:35.723Z,10.99
2022-10-14T21:19:09.257Z,10.98
2022-10-14T21:21:41.611Z,10.97
2022-10-14T21:24:14.539Z,10.97
2022-10-14T21:26:42.509Z,10.97
2022-10-14T21:29:10.644Z,10.95
2022-10-14T21:31:39.241Z,10.93
2022-10-14T21:34:07.541Z,10.89
2022-10-14T21:36:36.544Z,10.87
2022-10-14T21:39:13.340Z,10.84
2022-10-14T21:41:42.214Z,10.82
2022-10-14T21:44:14.661Z,10.79
2022-10-14T21:46:42.651Z,10.75
2022-10-14T21:49:10.951Z,10.73
2022-10-14T21:51:39.372Z,10.70
2022-10-14T21:54:07.761Z,10.65
2022-10-14T21:56:35.593Z,10.63
2022-10-14T21:59:04.444Z,10.63
2022-10-14T22:01:32.325Z,10.61
2022-10-14T22:04:05.979Z,10.58
2022-10-14T22:06:36.085Z,10.56
2022-10-14T22:09:07.012Z,10.54
2022-10-14T22:11:39.795Z,10.52
2022-10-14T22:14:12.281Z,10.48
2022-10-14T22:16:40.807Z,10.45
2022-10-14T22:19:10.580Z,10.40
2022-10-14T22:21:40.703Z,10.37
2022-10-14T22:24:09.749Z,10.35
2022-10-14T22:26:38.107Z,10.34
2022-10-14T22:29:10.717Z,10.31
2022-10-14T22:31:38.816Z,10.29
2022-10-14T22:34:08.224Z,10.27
2022-10-14T22:36:36.901Z,10.24
2022-10-14T22:39:08.984Z,10.22
2022-10-14T22:41:36.788Z,10.21
2022-10-14T22:44:05.868Z,10.20
2022-10-14T22:46:35.913Z,10.21
2022-10-14T22:49:04.566Z,10.21
2022-10-14T22:51:36.314Z,10.21
2022-10-14T22:54:04.440Z,10.21
2022-10-14T22:56:32.549Z,10.20
2022-10-14T22:59:03.516Z,10.21
2022-10-14T23:01:31.679Z,10.20
2022-10-14T23:04:00.972Z,10.20
2022-10-14T23:06:30.182Z,10.19
2022-10-14T23:09:00.592Z,10.18
2022-10-14T23:11:30.101Z,10.17
2022-10-14T23:14:00.290Z,10.16
2022-10-14T23:16:30.960Z,10.14
2022-10-14T23:18:59.467Z,10.15
2022-10-14T23:21:32.084Z,10.13
2022-10-14T23:24:02.881Z,10.11
2022-10-14T23:26:33.315Z,10.11
2022-10-14T23:29:04.040Z,10.09
2022-10-14T23:31:32.748Z,10.03
2022-10-14T23:34:03.335Z,10.01
2022-10-14T23:36:31.297Z,9.98
2022-10-14T23:38:59.573Z,9.98
2022-10-14T23:41:28.017Z,9.98
2022-10-14T23:43:56.831Z,9.98
2022-10-14T23:46:24.669Z,10.00
2022-10-14T23:49:06.690Z,10.00
2022-10-14T23:51:35.842Z,10.02
2022-10-14T23:54:04.540Z,10.04
2022-10-14T23:56:32.638Z,10.02
2022-10-14T23:59:00.540Z,10.00
